sensor_id;sensor_type;location;lat;lon;timestamp;pressure;altitude;pressure_sealevel;temperature;humidity
31585;BME280;18191;51.288;12.390;2022-11-20T00:01:36;49227.66;;;-144.47;89.58
31585;BME280;18191;51.288;12.390;2022-11-20T00:06:27;49215.72;;;-144.47;89.53
31585;BME280;18191;51.288;12.390;2022-11-20T00:11:18;49187.88;;;-144.47;88.99
31585;BME280;18191;51.288;12.390;2022-11-20T00:16:09;49177.94;;;-144.47;88.76
31585;BME280;18191;51.288;12.390;2022-11-20T00:21:00;49179.91;;;-144.47;88.98
31585;BME280;18191;51.288;12.390;2022-11-20T00:25:50;49215.72;;;-144.47;88.96
31585;BME280;18191;51.288;12.390;2022-11-20T00:30:40;49167.97;;;-144.47;89.02
31585;BME280;18191;51.288;12.390;2022-11-20T00:35:31;49199.81;;;-144.47;89.10
31585;BME280;18191;51.288;12.390;2022-11-20T00:40:21;49187.88;;;-144.47;89.00
31585;BME280;18191;51.288;12.390;2022-11-20T00:45:11;49211.75;;;-144.47;88.49
31585;BME280;18191;51.288;12.390;2022-11-20T00:50:01;49207.78;;;-144.47;88.90
31585;BME280;18191;51.288;12.390;2022-11-20T00:54:52;49217.72;;;-144.47;88.70
31585;BME280;18191;51.288;12.390;2022-11-20T00:59:42;49171.97;;;-144.47;88.76
31585;BME280;18191;51.288;12.390;2022-11-20T01:04:32;49207.78;;;-144.47;88.68
31585;BME280;18191;51.288;12.390;2022-11-20T01:09:22;49179.91;;;-144.47;88.73
31585;BME280;18191;51.288;12.390;2022-11-20T01:14:14;49211.75;;;-144.47;88.93
31585;BME280;18191;51.288;12.390;2022-11-20T01:19:06;49167.97;;;-144.47;88.60
31585;BME280;18191;51.288;12.390;2022-11-20T01:23:57;49140.13;;;-144.47;88.50
31585;BME280;18191;51.288;12.390;2022-11-20T01:28:47;49191.84;;;-144.47;88.46
31585;BME280;18191;51.288;12.390;2022-11-20T01:33:38;49193.84;;;-144.47;88.80
31585;BME280;18191;51.288;12.390;2022-11-20T01:38:28;49189.88;;;-144.47;88.44
31585;BME280;18191;51.288;12.390;2022-11-20T01:43:19;49219.72;;;-144.47;88.33
31585;BME280;18191;51.288;12.390;2022-11-20T01:48:12;49237.59;;;-144.47;88.30
31585;BME280;18191;51.288;12.390;2022-11-20T01:53:10;49187.88;;;-144.47;88.06
31585;BME280;18191;51.288;12.390;2022-11-20T01:58:03;49169.97;;;-144.47;88.30
31585;BME280;18191;51.288;12.390;2022-11-20T02:02:57;49191.84;;;-144.47;87.88
31585;BME280;18191;51.288;12.390;2022-11-20T02:07:48;49199.81;;;-144.47;88.67
31585;BME280;18191;51.288;12.390;2022-11-20T02:12:38;49207.78;;;-144.47;88.93
31585;BME280;18191;51.288;12.390;2022-11-20T02:17:47;49217.72;;;-144.47;89.16
31585;BME280;18191;51.288;12.390;2022-11-20T02:22:48;49227.66;;;-144.47;89.36
31585;BME280;18191;51.288;12.390;2022-11-20T02:27:42;49207.78;;;-144.47;89.68
31585;BME280;18191;51.288;12.390;2022-11-20T02:32:33;49219.72;;;-144.47;90.15
31585;BME280;18191;51.288;12.390;2022-11-20T02:37:27;49215.72;;;-144.47;89.40
31585;BME280;18191;51.288;12.390;2022-11-20T02:42:20;49191.84;;;-144.47;89.36
31585;BME280;18191;51.288;12.390;2022-11-20T02:47:10;49251.53;;;-144.47;89.05
31585;BME280;18191;51.288;12.390;2022-11-20T02:52:00;49203.78;;;-144.47;89.09
31585;BME280;18191;51.288;12.390;2022-11-20T02:56:50;49173.94;;;-144.47;89.16
31585;BME280;18191;51.288;12.390;2022-11-20T03:01:41;49239.59;;;-144.47;89.10
31585;BME280;18191;51.288;12.390;2022-11-20T03:06:31;49227.66;;;-144.47;89.32
31585;BME280;18191;51.288;12.390;2022-11-20T03:11:21;49231.63;;;-144.47;89.47
31585;BME280;18191;51.288;12.390;2022-11-20T03:16:12;49233.63;;;-144.47;89.34
31585;BME280;18191;51.288;12.390;2022-11-20T03:21:03;49187.88;;;-144.47;89.16
31585;BME280;18191;51.288;12.390;2022-11-20T03:25:53;49187.88;;;-144.47;88.75
31585;BME280;18191;51.288;12.390;2022-11-20T03:30:43;49247.56;;;-144.47;88.76
31585;BME280;18191;51.288;12.390;2022-11-20T03:35:33;49181.91;;;-144.47;88.61
31585;BME280;18191;51.288;12.390;2022-11-20T03:40:24;49187.88;;;-144.47;89.17
31585;BME280;18191;51.288;12.390;2022-11-20T03:45:15;49211.75;;;-144.47;89.29
31585;BME280;18191;51.288;12.390;2022-11-20T03:50:05;49243.56;;;-144.47;90.23
31585;BME280;18191;51.288;12.390;2022-11-20T03:54:55;49247.56;;;-144.47;90.49
31585;BME280;18191;51.288;12.390;2022-11-20T03:59:46;49211.75;;;-144.47;91.14
31585;BME280;18191;51.288;12.390;2022-11-20T04:04:36;49203.78;;;-144.47;91.04
31585;BME280;18191;51.288;12.390;2022-11-20T04:09:26;49203.78;;;-144.47;91.32
31585;BME280;18191;51.288;12.390;2022-11-20T04:14:16;49233.63;;;-144.47;91.00
31585;BME280;18191;51.288;12.390;2022-11-20T04:19:11;49203.78;;;-144.47;91.07
31585;BME280;18191;51.288;12.390;2022-11-20T04:24:01;49187.88;;;-144.47;91.58
31585;BME280;18191;51.288;12.390;2022-11-20T04:28:52;49187.88;;;-144.47;91.50
31585;BME280;18191;51.288;12.390;2022-11-20T04:33:42;49189.88;;;-144.47;91.74
31585;BME280;18191;51.288;12.390;2022-11-20T04:38:35;49237.59;;;-144.47;91.75
31585;BME280;18191;51.288;12.390;2022-11-20T04:43:26;49245.56;;;-144.47;92.21
31585;BME280;18191;51.288;12.390;2022-11-20T04:48:16;49215.72;;;-144.47;92.21
31585;BME280;18191;51.288;12.390;2022-11-20T04:53:06;49231.63;;;-144.47;92.17
31585;BME280;18191;51.288;12.390;2022-11-20T04:57:56;49211.75;;;-144.47;92.30
31585;BME280;18191;51.288;12.390;2022-11-20T05:02:48;49185.88;;;-144.47;92.16
31585;BME280;18191;51.288;12.390;2022-11-20T05:07:38;49233.63;;;-144.47;91.75
31585;BME280;18191;51.288;12.390;2022-11-20T05:12:29;49177.94;;;-144.47;91.67
31585;BME280;18191;51.288;12.390;2022-11-20T05:17:19;49231.63;;;-144.47;91.87
31585;BME280;18191;51.288;12.390;2022-11-20T05:22:09;49199.81;;;-144.47;91.63
31585;BME280;18191;51.288;12.390;2022-11-20T05:26:59;49227.66;;;-144.47;91.80
31585;BME280;18191;51.288;12.390;2022-11-20T05:31:50;49187.88;;;-144.47;91.50
31585;BME280;18191;51.288;12.390;2022-11-20T05:36:40;49219.72;;;-144.47;92.02
31585;BME280;18191;51.288;12.390;2022-11-20T05:41:30;49199.81;;;-144.47;91.86
31585;BME280;18191;51.288;12.390;2022-11-20T05:46:20;49199.81;;;-144.47;91.82
31585;BME280;18191;51.288;12.390;2022-11-20T05:51:12;49215.72;;;-144.47;91.80
31585;BME280;18191;51.288;12.390;2022-11-20T05:56:07;49247.56;;;-144.47;92.67
31585;BME280;18191;51.288;12.390;2022-11-20T06:01:08;49211.75;;;-144.47;92.48
31585;BME280;18191;51.288;12.390;2022-11-20T06:05:59;49195.84;;;-144.47;92.16
31585;BME280;18191;51.288;12.390;2022-11-20T06:10:49;49187.88;;;-144.47;92.47
31585;BME280;18191;51.288;12.390;2022-11-20T06:15:39;49189.88;;;-144.47;91.88
31585;BME280;18191;51.288;12.390;2022-11-20T06:20:29;49219.72;;;-144.47;92.16
31585;BME280;18191;51.288;12.390;2022-11-20T06:25:20;49223.69;;;-144.47;91.89
31585;BME280;18191;51.288;12.390;2022-11-20T06:30:10;49221.69;;;-144.47;91.59
31585;BME280;18191;51.288;12.390;2022-11-20T06:35:00;49207.78;;;-144.47;91.54
31585;BME280;18191;51.288;12.390;2022-11-20T06:39:50;49247.56;;;-144.47;91.46
31585;BME280;18191;51.288;12.390;2022-11-20T06:44:41;49233.63;;;-144.47;91.67
31585;BME280;18191;51.288;12.390;2022-11-20T06:49:31;49245.56;;;-144.47;91.66
31585;BME280;18191;51.288;12.390;2022-11-20T06:54:21;49195.84;;;-144.47;91.51
31585;BME280;18191;51.288;12.390;2022-11-20T06:59:12;49233.63;;;-144.47;91.51
31585;BME280;18191;51.288;12.390;2022-11-20T07:04:02;49235.63;;;-144.47;91.25
31585;BME280;18191;51.288;12.390;2022-11-20T07:08:53;49213.75;;;-144.47;91.54
31585;BME280;18191;51.288;12.390;2022-11-20T07:13:43;49199.81;;;-144.47;91.57
31585;BME280;18191;51.288;12.390;2022-11-20T07:18:33;49243.56;;;-144.47;91.35
31585;BME280;18191;51.288;12.390;2022-11-20T07:23:23;49211.75;;;-144.47;90.90
31585;BME280;18191;51.288;12.390;2022-11-20T07:28:14;49243.56;;;-144.47;90.68
31585;BME280;18191;51.288;12.390;2022-11-20T07:33:04;49195.84;;;-144.47;90.81
31585;BME280;18191;51.288;12.390;2022-11-20T07:37:54;49239.59;;;-144.47;90.38
31585;BME280;18191;51.288;12.390;2022-11-20T07:42:48;49205.78;;;-144.47;90.61
31585;BME280;18191;51.288;12.390;2022-11-20T07:47:39;49239.59;;;-144.47;90.04
31585;BME280;18191;51.288;12.390;2022-11-20T07:52:29;49179.91;;;-144.47;89.53
31585;BME280;18191;51.288;12.390;2022-11-20T07:57:19;49213.75;;;-144.47;89.35
31585;BME280;18191;51.288;12.390;2022-11-20T08:02:10;49183.91;;;-144.47;88.80
31585;BME280;18191;51.288;12.390;2022-11-20T08:07:01;49195.84;;;-144.47;88.05
31585;BME280;18191;51.288;12.390;2022-11-20T08:11:51;49243.56;;;-144.47;87.66
31585;BME280;18191;51.288;12.390;2022-11-20T08:17:00;49187.88;;;-144.47;87.58
31585;BME280;18191;51.288;12.390;2022-11-20T08:21:50;49233.63;;;-144.47;86.78
31585;BME280;18191;51.288;12.390;2022-11-20T08:26:40;49235.63;;;-144.47;87.07
31585;BME280;18191;51.288;12.390;2022-11-20T08:31:31;49175.94;;;-144.47;86.53
31585;BME280;18191;51.288;12.390;2022-11-20T08:36:22;49203.78;;;-144.47;86.07
31585;BME280;18191;51.288;12.390;2022-11-20T08:41:12;49179.91;;;-144.47;85.79
31585;BME280;18191;51.288;12.390;2022-11-20T08:46:17;49183.91;;;-144.47;85.05
31585;BME280;18191;51.288;12.390;2022-11-20T08:51:08;49167.97;;;-144.47;84.72
31585;BME280;18191;51.288;12.390;2022-11-20T08:55:58;49205.78;;;-144.47;83.06
31585;BME280;18191;51.288;12.390;2022-11-20T09:00:48;49215.72;;;-144.47;83.70
31585;BME280;18191;51.288;12.390;2022-11-20T09:05:39;49235.63;;;-144.47;83.18
31585;BME280;18191;51.288;12.390;2022-11-20T09:10:29;49160.03;;;-144.47;81.77
31585;BME280;18191;51.288;12.390;2022-11-20T09:15:19;49187.88;;;-144.47;81.26
31585;BME280;18191;51.288;12.390;2022-11-20T09:20:09;49167.97;;;-144.47;80.85
31585;BME280;18191;51.288;12.390;2022-11-20T09:24:59;49162.00;;;-144.47;81.14
31585;BME280;18191;51.288;12.390;2022-11-20T09:29:49;49211.75;;;-144.47;80.49
31585;BME280;18191;51.288;12.390;2022-11-20T09:34:40;49207.78;;;-144.47;81.32
31585;BME280;18191;51.288;12.390;2022-11-20T09:39:30;49207.78;;;-144.47;78.67
31585;BME280;18191;51.288;12.390;2022-11-20T09:49:36;49144.09;;;-144.47;77.81
31585;BME280;18191;51.288;12.390;2022-11-20T09:54:34;49199.81;;;-144.47;78.57
31585;BME280;18191;51.288;12.390;2022-11-20T09:59:41;49183.91;;;-144.47;78.68
31585;BME280;18191;51.288;12.390;2022-11-20T10:04:32;49187.88;;;-144.47;79.33
31585;BME280;18191;51.288;12.390;2022-11-20T10:09:43;49195.84;;;-144.47;79.58
31585;BME280;18191;51.288;12.390;2022-11-20T10:19:47;49213.75;;;-144.47;80.08
31585;BME280;18191;51.288;12.390;2022-11-20T10:29:47;49189.88;;;-144.47;81.73
31585;BME280;18191;51.288;12.390;2022-11-20T10:39:57;49201.81;;;-144.47;80.74
31585;BME280;18191;51.288;12.390;2022-11-20T10:44:52;49179.91;;;-144.47;76.76
31585;BME280;18191;51.288;12.390;2022-11-20T10:49:53;49187.88;;;-144.47;75.06
31585;BME280;18191;51.288;12.390;2022-11-20T10:54:54;49167.97;;;-144.47;74.49
31585;BME280;18191;51.288;12.390;2022-11-20T10:59:59;49156.03;;;-144.47;74.00
31585;BME280;18191;51.288;12.390;2022-11-20T11:04:53;49203.78;;;-144.47;73.69
31585;BME280;18191;51.288;12.390;2022-11-20T11:09:48;49171.97;;;-144.47;73.52
31585;BME280;18191;51.288;12.390;2022-11-20T11:14:49;49205.78;;;-144.47;72.86
31585;BME280;18191;51.288;12.390;2022-11-20T11:19:40;49167.97;;;-144.47;73.57
31585;BME280;18191;51.288;12.390;2022-11-20T11:24:30;49195.84;;;-144.47;74.73
31585;BME280;18191;51.288;12.390;2022-11-20T11:29:20;49167.97;;;-144.47;74.23
31585;BME280;18191;51.288;12.390;2022-11-20T11:34:14;49150.06;;;-144.47;72.82
31585;BME280;18191;51.288;12.390;2022-11-20T11:39:05;49171.97;;;-144.47;72.95
31585;BME280;18191;51.288;12.390;2022-11-20T11:43:58;49183.91;;;-144.47;73.32
31585;BME280;18191;51.288;12.390;2022-11-20T11:53:59;49185.88;;;-144.47;71.74
31585;BME280;18191;51.288;12.390;2022-11-20T11:58:51;49179.91;;;-144.47;73.35
31585;BME280;18191;51.288;12.390;2022-11-20T12:03:42;49167.97;;;-144.47;72.90
31585;BME280;18191;51.288;12.390;2022-11-20T12:08:40;49150.06;;;-144.47;72.16
31585;BME280;18191;51.288;12.390;2022-11-20T12:18:23;49179.91;;;-144.47;71.21
31585;BME280;18191;51.288;12.390;2022-11-20T12:23:18;49160.03;;;-144.47;70.91
31585;BME280;18191;51.288;12.390;2022-11-20T12:43:30;49167.97;;;-144.47;69.47
31585;BME280;18191;51.288;12.390;2022-11-20T13:04:45;49156.03;;;-144.47;69.00
31585;BME280;18191;51.288;12.390;2022-11-20T13:09:41;49219.72;;;-144.47;69.94
31585;BME280;18191;51.288;12.390;2022-11-20T13:14:34;49187.88;;;-144.47;68.95
31585;BME280;18191;51.288;12.390;2022-11-20T13:19:27;49175.94;;;-144.47;68.22
31585;BME280;18191;51.288;12.390;2022-11-20T13:24:20;49199.81;;;-144.47;68.26
31585;BME280;18191;51.288;12.390;2022-11-20T13:29:17;49179.91;;;-144.47;67.26
31585;BME280;18191;51.288;12.390;2022-11-20T13:34:09;49179.91;;;-144.47;65.85
31585;BME280;18191;51.288;12.390;2022-11-20T13:39:02;49189.88;;;-144.47;66.99
31585;BME280;18191;51.288;12.390;2022-11-20T13:43:53;49148.09;;;-144.47;66.38
31585;BME280;18191;51.288;12.390;2022-11-20T13:48:44;49191.84;;;-144.47;64.26
31585;BME280;18191;51.288;12.390;2022-11-20T14:03:34;49179.91;;;-144.47;69.28
31585;BME280;18191;51.288;12.390;2022-11-20T14:08:42;49146.09;;;-144.47;70.21
31585;BME280;18191;51.288;12.390;2022-11-20T14:13:34;49162.00;;;-144.47;67.92
31585;BME280;18191;51.288;12.390;2022-11-20T14:18:26;49140.13;;;-144.47;70.09
31585;BME280;18191;51.288;12.390;2022-11-20T14:23:26;49167.97;;;-144.47;68.86
31585;BME280;18191;51.288;12.390;2022-11-20T14:28:22;49199.81;;;-144.47;70.16
31585;BME280;18191;51.288;12.390;2022-11-20T14:33:14;49179.91;;;-144.47;70.75
31585;BME280;18191;51.288;12.390;2022-11-20T14:38:08;49187.88;;;-144.47;72.84
31585;BME280;18191;51.288;12.390;2022-11-20T14:43:00;49199.81;;;-144.47;72.12
31585;BME280;18191;51.288;12.390;2022-11-20T14:47:51;49158.03;;;-144.47;72.28
31585;BME280;18191;51.288;12.390;2022-11-20T14:52:49;49156.03;;;-144.47;73.49
31585;BME280;18191;51.288;12.390;2022-11-20T14:57:39;49197.81;;;-144.47;75.52
31585;BME280;18191;51.288;12.390;2022-11-20T15:02:30;49160.03;;;-144.47;76.03
31585;BME280;18191;51.288;12.390;2022-11-20T15:07:24;49215.72;;;-144.47;77.40
31585;BME280;18191;51.288;12.390;2022-11-20T15:12:16;49175.94;;;-144.47;77.56
31585;BME280;18191;51.288;12.390;2022-11-20T15:17:08;49167.97;;;-144.47;76.71
31585;BME280;18191;51.288;12.390;2022-11-20T15:21:59;49171.97;;;-144.47;76.65
31585;BME280;18191;51.288;12.390;2022-11-20T15:26:50;49215.72;;;-144.47;78.55
31585;BME280;18191;51.288;12.390;2022-11-20T15:31:40;49199.81;;;-144.47;78.94
31585;BME280;18191;51.288;12.390;2022-11-20T15:36:33;49156.03;;;-144.47;80.04
31585;BME280;18191;51.288;12.390;2022-11-20T15:41:23;49175.94;;;-144.47;80.51
31585;BME280;18191;51.288;12.390;2022-11-20T15:46:14;49199.81;;;-144.47;80.78
31585;BME280;18191;51.288;12.390;2022-11-20T15:51:06;49203.78;;;-144.47;81.38
31585;BME280;18191;51.288;12.390;2022-11-20T15:56:02;49217.72;;;-144.47;82.03
31585;BME280;18191;51.288;12.390;2022-11-20T16:00:54;49207.78;;;-144.47;82.28
31585;BME280;18191;51.288;12.390;2022-11-20T16:05:44;49160.03;;;-144.47;83.64
31585;BME280;18191;51.288;12.390;2022-11-20T16:10:35;49169.97;;;-144.47;83.52
31585;BME280;18191;51.288;12.390;2022-11-20T16:15:25;49183.91;;;-144.47;84.63
31585;BME280;18191;51.288;12.390;2022-11-20T16:20:34;49179.91;;;-144.47;84.73
31585;BME280;18191;51.288;12.390;2022-11-20T16:25:24;49231.63;;;-144.47;85.19
31585;BME280;18191;51.288;12.390;2022-11-20T16:30:14;49211.75;;;-144.47;85.17
31585;BME280;18191;51.288;12.390;2022-11-20T16:35:05;49158.03;;;-144.47;84.97
31585;BME280;18191;51.288;12.390;2022-11-20T16:39:57;49199.81;;;-144.47;84.94
31585;BME280;18191;51.288;12.390;2022-11-20T16:44:47;49183.91;;;-144.47;86.24
31585;BME280;18191;51.288;12.390;2022-11-20T16:49:37;49239.59;;;-144.47;87.01
31585;BME280;18191;51.288;12.390;2022-11-20T16:54:28;49203.78;;;-144.47;87.76
31585;BME280;18191;51.288;12.390;2022-11-20T16:59:18;49203.78;;;-144.47;87.31
31585;BME280;18191;51.288;12.390;2022-11-20T17:04:08;49191.84;;;-144.47;87.76
31585;BME280;18191;51.288;12.390;2022-11-20T17:08:58;49217.72;;;-144.47;88.36
31585;BME280;18191;51.288;12.390;2022-11-20T17:13:49;49215.72;;;-144.47;88.47
31585;BME280;18191;51.288;12.390;2022-11-20T17:18:39;49164.00;;;-144.47;88.80
31585;BME280;18191;51.288;12.390;2022-11-20T17:23:30;49193.84;;;-144.47;87.45
31585;BME280;18191;51.288;12.390;2022-11-20T17:28:20;49187.88;;;-144.47;87.07
31585;BME280;18191;51.288;12.390;2022-11-20T17:33:10;49219.72;;;-144.47;87.76
31585;BME280;18191;51.288;12.390;2022-11-20T17:38:01;49177.94;;;-144.47;88.85
31585;BME280;18191;51.288;12.390;2022-11-20T17:42:51;49191.84;;;-144.47;88.96
31585;BME280;18191;51.288;12.390;2022-11-20T17:47:41;49183.91;;;-144.47;89.07
31585;BME280;18191;51.288;12.390;2022-11-20T17:52:33;49205.78;;;-144.47;89.29
31585;BME280;18191;51.288;12.390;2022-11-20T17:57:23;49229.66;;;-144.47;88.80
31585;BME280;18191;51.288;12.390;2022-11-20T18:02:32;49207.78;;;-144.47;89.03
31585;BME280;18191;51.288;12.390;2022-11-20T18:07:22;49247.56;;;-144.47;89.60
31585;BME280;18191;51.288;12.390;2022-11-20T18:12:13;49207.78;;;-144.47;90.30
31585;BME280;18191;51.288;12.390;2022-11-20T18:21:53;49209.75;;;-144.47;90.90
31585;BME280;18191;51.288;12.390;2022-11-20T18:26:43;49164.00;;;-144.47;90.44
31585;BME280;18191;51.288;12.390;2022-11-20T18:31:34;49199.81;;;-144.47;90.56
31585;BME280;18191;51.288;12.390;2022-11-20T18:36:26;49181.91;;;-144.47;90.76
31585;BME280;18191;51.288;12.390;2022-11-20T18:41:17;49211.75;;;-144.47;90.15
31585;BME280;18191;51.288;12.390;2022-11-20T18:46:28;49197.81;;;-144.47;90.40
31585;BME280;18191;51.288;12.390;2022-11-20T18:51:19;49219.72;;;-144.47;90.32
31585;BME280;18191;51.288;12.390;2022-11-20T18:56:09;49203.78;;;-144.47;90.73
31585;BME280;18191;51.288;12.390;2022-11-20T19:01:04;49227.66;;;-144.47;90.67
31585;BME280;18191;51.288;12.390;2022-11-20T19:05:54;49199.81;;;-144.47;90.77
31585;BME280;18191;51.288;12.390;2022-11-20T19:10:44;49164.00;;;-144.47;90.15
31585;BME280;18191;51.288;12.390;2022-11-20T19:15:35;49187.88;;;-144.47;89.99
31585;BME280;18191;51.288;12.390;2022-11-20T19:20:28;49183.91;;;-144.47;90.56
31585;BME280;18191;51.288;12.390;2022-11-20T19:25:18;49164.00;;;-144.47;90.34
31585;BME280;18191;51.288;12.390;2022-11-20T19:30:08;49199.81;;;-144.47;89.76
31585;BME280;18191;51.288;12.390;2022-11-20T19:34:59;49193.84;;;-144.47;89.90
31585;BME280;18191;51.288;12.390;2022-11-20T19:39:52;49207.78;;;-144.47;89.70
31585;BME280;18191;51.288;12.390;2022-11-20T19:44:42;49205.78;;;-144.47;89.62
31585;BME280;18191;51.288;12.390;2022-11-20T19:49:33;49203.78;;;-144.47;89.59
31585;BME280;18191;51.288;12.390;2022-11-20T19:54:24;49203.78;;;-144.47;89.46
31585;BME280;18191;51.288;12.390;2022-11-20T19:59:14;49183.91;;;-144.47;89.62
31585;BME280;18191;51.288;12.390;2022-11-20T20:04:05;49227.66;;;-144.47;89.66
31585;BME280;18191;51.288;12.390;2022-11-20T20:08:57;49223.69;;;-144.47;89.49
31585;BME280;18191;51.288;12.390;2022-11-20T20:13:48;49197.81;;;-144.47;89.89
31585;BME280;18191;51.288;12.390;2022-11-20T20:18:39;49197.81;;;-144.47;89.98
31585;BME280;18191;51.288;12.390;2022-11-20T20:23:29;49247.56;;;-144.47;89.09
31585;BME280;18191;51.288;12.390;2022-11-20T20:28:21;49183.91;;;-144.47;88.98
31585;BME280;18191;51.288;12.390;2022-11-20T20:33:14;49199.81;;;-144.47;88.65
31585;BME280;18191;51.288;12.390;2022-11-20T20:38:07;49191.84;;;-144.47;89.56
31585;BME280;18191;51.288;12.390;2022-11-20T20:42:58;49227.66;;;-144.47;89.95
31585;BME280;18191;51.288;12.390;2022-11-20T20:47:49;49215.72;;;-144.47;89.71
31585;BME280;18191;51.288;12.390;2022-11-20T20:52:40;49183.91;;;-144.47;90.20
31585;BME280;18191;51.288;12.390;2022-11-20T20:57:30;49239.59;;;-144.47;90.34
31585;BME280;18191;51.288;12.390;2022-11-20T21:02:21;49191.84;;;-144.47;90.17
31585;BME280;18191;51.288;12.390;2022-11-20T21:07:14;49215.72;;;-144.47;89.60
31585;BME280;18191;51.288;12.390;2022-11-20T21:12:04;49191.84;;;-144.47;89.54
31585;BME280;18191;51.288;12.390;2022-11-20T21:16:54;49215.72;;;-144.47;90.35
31585;BME280;18191;51.288;12.390;2022-11-20T21:21:45;49162.00;;;-144.47;90.85
31585;BME280;18191;51.288;12.390;2022-11-20T21:26:54;49179.91;;;-144.47;91.11
31585;BME280;18191;51.288;12.390;2022-11-20T21:31:44;49231.63;;;-144.47;91.11
31585;BME280;18191;51.288;12.390;2022-11-20T21:36:34;49175.94;;;-144.47;91.35
31585;BME280;18191;51.288;12.390;2022-11-20T21:41:26;49207.78;;;-144.47;89.72
31585;BME280;18191;51.288;12.390;2022-11-20T21:46:17;49223.69;;;-144.47;89.46
31585;BME280;18191;51.288;12.390;2022-11-20T21:51:08;49185.88;;;-144.47;90.06
31585;BME280;18191;51.288;12.390;2022-11-20T21:55:59;49203.78;;;-144.47;90.35
31585;BME280;18191;51.288;12.390;2022-11-20T22:00:49;49207.78;;;-144.47;89.28
31585;BME280;18191;51.288;12.390;2022-11-20T22:05:39;49211.75;;;-144.47;88.59
31585;BME280;18191;51.288;12.390;2022-11-20T22:10:30;49207.78;;;-144.47;88.72
31585;BME280;18191;51.288;12.390;2022-11-20T22:15:20;49223.69;;;-144.47;88.90
31585;BME280;18191;51.288;12.390;2022-11-20T22:20:10;49211.75;;;-144.47;89.71
31585;BME280;18191;51.288;12.390;2022-11-20T22:25:02;49227.66;;;-144.47;89.65
31585;BME280;18191;51.288;12.390;2022-11-20T22:29:53;49235.63;;;-144.47;89.51
31585;BME280;18191;51.288;12.390;2022-11-20T22:34:43;49175.94;;;-144.47;90.44
31585;BME280;18191;51.288;12.390;2022-11-20T22:39:33;49227.66;;;-144.47;91.09
31585;BME280;18191;51.288;12.390;2022-11-20T22:44:25;49197.81;;;-144.47;90.96
31585;BME280;18191;51.288;12.390;2022-11-20T22:49:15;49263.47;;;-144.47;91.02
31585;BME280;18191;51.288;12.390;2022-11-20T22:54:06;49169.97;;;-144.47;91.12
31585;BME280;18191;51.288;12.390;2022-11-20T22:58:57;49191.84;;;-144.47;91.12
31585;BME280;18191;51.288;12.390;2022-11-20T23:03:51;49235.63;;;-144.47;91.57
31585;BME280;18191;51.288;12.390;2022-11-20T23:08:43;49211.75;;;-144.47;90.52
31585;BME280;18191;51.288;12.390;2022-11-20T23:13:35;49175.94;;;-144.47;90.87
31585;BME280;18191;51.288;12.390;2022-11-20T23:18:25;49215.72;;;-144.47;90.78
31585;BME280;18191;51.288;12.390;2022-11-20T23:23:17;49199.81;;;-144.47;91.02
31585;BME280;18191;51.288;12.390;2022-11-20T23:28:07;49179.91;;;-144.47;91.86
31585;BME280;18191;51.288;12.390;2022-11-20T23:32:58;49185.88;;;-144.47;92.17
31585;BME280;18191;51.288;12.390;2022-11-20T23:37:48;49211.75;;;-144.47;91.46
31585;BME280;18191;51.288;12.390;2022-11-20T23:42:38;49219.72;;;-144.47;91.67
31585;BME280;18191;51.288;12.390;2022-11-20T23:47:48;49195.84;;;-144.47;91.95
31585;BME280;18191;51.288;12.390;2022-11-20T23:52:40;49171.97;;;-144.47;92.15
31585;BME280;18191;51.288;12.390;2022-11-20T23:57:30;49217.72;;;-144.47;91.67
